sensor_id;sensor_type;location;lat;lon;timestamp;P1;durP1;ratioP1;P2;durP2;ratioP2
29242;SDS011;21110;48.036;15.780;2023-03-23T00:01:04;9.45;;;2.20;;
29242;SDS011;21110;48.036;15.780;2023-03-23T00:03:31;7.55;;;2.20;;
29242;SDS011;21110;48.036;15.780;2023-03-23T00:05:58;4.07;;;2.13;;
29242;SDS011;21110;48.036;15.780;2023-03-23T00:08:27;4.82;;;1.95;;
29242;SDS011;21110;48.036;15.780;2023-03-23T00:10:54;5.55;;;2.15;;
29242;SDS011;21110;48.036;15.780;2023-03-23T00:13:23;7.55;;;2.50;;
29242;SDS011;21110;48.036;15.780;2023-03-23T00:15:49;6.55;;;2.10;;
29242;SDS011;21110;48.036;15.780;2023-03-23T00:18:17;4.80;;;2.03;;
29242;SDS011;21110;48.036;15.780;2023-03-23T00:20:46;6.63;;;2.20;;
29242;SDS011;21110;48.036;15.780;2023-03-23T00:23:23;8.52;;;2.38;;
29242;SDS011;21110;48.036;15.780;2023-03-23T00:25:52;4.50;;;2.00;;
29242;SDS011;21110;48.036;15.780;2023-03-23T00:28:22;5.32;;;2.22;;
29242;SDS011;21110;48.036;15.780;2023-03-23T00:31:01;4.38;;;2.38;;
29242;SDS011;21110;48.036;15.780;2023-03-23T00:33:32;6.03;;;2.10;;
29242;SDS011;21110;48.036;15.780;2023-03-23T00:36:03;6.88;;;2.05;;
29242;SDS011;21110;48.036;15.780;2023-03-23T00:38:30;5.47;;;2.20;;
29242;SDS011;21110;48.036;15.780;2023-03-23T00:40:56;6.53;;;2.30;;
29242;SDS011;21110;48.036;15.780;2023-03-23T00:43:22;5.00;;;2.00;;
29242;SDS011;21110;48.036;15.780;2023-03-23T00:45:49;9.20;;;2.60;;
29242;SDS011;21110;48.036;15.780;2023-03-23T00:48:18;12.13;;;2.20;;
29242;SDS011;21110;48.036;15.780;2023-03-23T00:50:47;11.38;;;2.10;;
29242;SDS011;21110;48.036;15.780;2023-03-23T00:53:14;9.50;;;2.30;;
29242;SDS011;21110;48.036;15.780;2023-03-23T00:55:41;7.47;;;2.28;;
29242;SDS011;21110;48.036;15.780;2023-03-23T00:58:08;6.90;;;2.20;;
29242;SDS011;21110;48.036;15.780;2023-03-23T01:00:34;6.47;;;2.00;;
29242;SDS011;21110;48.036;15.780;2023-03-23T01:03:00;8.27;;;2.00;;
29242;SDS011;21110;48.036;15.780;2023-03-23T01:05:26;7.18;;;2.22;;
29242;SDS011;21110;48.036;15.780;2023-03-23T01:07:57;7.60;;;2.30;;
29242;SDS011;21110;48.036;15.780;2023-03-23T01:10:23;6.68;;;2.10;;
29242;SDS011;21110;48.036;15.780;2023-03-23T01:12:51;6.78;;;2.55;;
29242;SDS011;21110;48.036;15.780;2023-03-23T01:15:18;7.88;;;2.20;;
29242;SDS011;21110;48.036;15.780;2023-03-23T01:17:44;7.15;;;2.15;;
29242;SDS011;21110;48.036;15.780;2023-03-23T01:20:14;5.88;;;2.00;;
29242;SDS011;21110;48.036;15.780;2023-03-23T01:22:40;5.85;;;1.92;;
29242;SDS011;21110;48.036;15.780;2023-03-23T01:25:07;4.63;;;2.17;;
29242;SDS011;21110;48.036;15.780;2023-03-23T01:27:34;4.68;;;2.00;;
29242;SDS011;21110;48.036;15.780;2023-03-23T01:30:00;5.45;;;2.08;;
29242;SDS011;21110;48.036;15.780;2023-03-23T01:32:26;8.40;;;2.10;;
29242;SDS011;21110;48.036;15.780;2023-03-23T01:34:52;3.28;;;1.88;;
29242;SDS011;21110;48.036;15.780;2023-03-23T01:37:17;4.80;;;2.10;;
29242;SDS011;21110;48.036;15.780;2023-03-23T01:39:44;2.00;;;1.90;;
29242;SDS011;21110;48.036;15.780;2023-03-23T01:42:10;5.20;;;2.10;;
29242;SDS011;21110;48.036;15.780;2023-03-23T01:47:02;3.83;;;1.80;;
29242;SDS011;21110;48.036;15.780;2023-03-23T01:49:29;3.42;;;1.75;;
29242;SDS011;21110;48.036;15.780;2023-03-23T01:52:03;5.70;;;2.10;;
29242;SDS011;21110;48.036;15.780;2023-03-23T01:57:00;4.50;;;1.85;;
29242;SDS011;21110;48.036;15.780;2023-03-23T01:59:29;5.05;;;2.00;;
29242;SDS011;21110;48.036;15.780;2023-03-23T02:01:56;2.80;;;2.00;;
29242;SDS011;21110;48.036;15.780;2023-03-23T02:04:22;3.13;;;1.90;;
29242;SDS011;21110;48.036;15.780;2023-03-23T02:06:50;7.32;;;2.00;;
29242;SDS011;21110;48.036;15.780;2023-03-23T02:09:17;3.47;;;1.90;;
29242;SDS011;21110;48.036;15.780;2023-03-23T02:11:44;3.78;;;2.10;;
29242;SDS011;21110;48.036;15.780;2023-03-23T02:14:10;7.40;;;1.92;;
29242;SDS011;21110;48.036;15.780;2023-03-23T02:17:21;11.48;;;2.10;;
29242;SDS011;21110;48.036;15.780;2023-03-23T02:22:49;3.85;;;1.80;;
29242;SDS011;21110;48.036;15.780;2023-03-23T02:31:09;5.68;;;1.80;;
29242;SDS011;21110;48.036;15.780;2023-03-23T02:34:00;4.43;;;1.80;;
29242;SDS011;21110;48.036;15.780;2023-03-23T02:36:29;6.53;;;2.00;;
29242;SDS011;21110;48.036;15.780;2023-03-23T02:39:04;4.72;;;2.05;;
29242;SDS011;21110;48.036;15.780;2023-03-23T02:41:37;5.80;;;2.05;;
29242;SDS011;21110;48.036;15.780;2023-03-23T02:44:16;5.35;;;1.90;;
29242;SDS011;21110;48.036;15.780;2023-03-23T02:46:43;2.75;;;1.83;;
29242;SDS011;21110;48.036;15.780;2023-03-23T02:49:11;3.42;;;2.00;;
29242;SDS011;21110;48.036;15.780;2023-03-23T02:51:39;2.90;;;1.73;;
29242;SDS011;21110;48.036;15.780;2023-03-23T02:54:08;3.97;;;1.83;;
29242;SDS011;21110;48.036;15.780;2023-03-23T02:56:35;3.75;;;1.90;;
29242;SDS011;21110;48.036;15.780;2023-03-23T02:59:02;2.83;;;1.92;;
29242;SDS011;21110;48.036;15.780;2023-03-23T03:03:54;14.88;;;2.10;;
29242;SDS011;21110;48.036;15.780;2023-03-23T03:11:58;9.20;;;1.95;;
29242;SDS011;21110;48.036;15.780;2023-03-23T03:14:34;6.28;;;2.00;;
29242;SDS011;21110;48.036;15.780;2023-03-23T03:17:10;6.28;;;2.03;;
29242;SDS011;21110;48.036;15.780;2023-03-23T03:19:49;4.22;;;1.90;;
29242;SDS011;21110;48.036;15.780;2023-03-23T03:22:17;9.80;;;1.80;;
29242;SDS011;21110;48.036;15.780;2023-03-23T03:24:45;5.15;;;1.92;;
29242;SDS011;21110;48.036;15.780;2023-03-23T03:27:14;4.78;;;1.90;;
29242;SDS011;21110;48.036;15.780;2023-03-23T03:29:42;3.95;;;1.88;;
29242;SDS011;21110;48.036;15.780;2023-03-23T03:32:11;6.65;;;1.98;;
29242;SDS011;21110;48.036;15.780;2023-03-23T03:34:40;4.43;;;1.90;;
29242;SDS011;21110;48.036;15.780;2023-03-23T03:37:06;4.32;;;1.92;;
29242;SDS011;21110;48.036;15.780;2023-03-23T03:39:35;7.25;;;2.15;;
29242;SDS011;21110;48.036;15.780;2023-03-23T03:42:02;5.25;;;2.00;;
29242;SDS011;21110;48.036;15.780;2023-03-23T03:44:28;5.65;;;1.98;;
29242;SDS011;21110;48.036;15.780;2023-03-23T03:46:54;7.22;;;1.65;;
29242;SDS011;21110;48.036;15.780;2023-03-23T03:49:20;3.95;;;1.77;;
29242;SDS011;21110;48.036;15.780;2023-03-23T03:51:47;5.07;;;1.90;;
29242;SDS011;21110;48.036;15.780;2023-03-23T03:54:13;3.65;;;2.00;;
29242;SDS011;21110;48.036;15.780;2023-03-23T03:56:39;6.07;;;1.90;;
29242;SDS011;21110;48.036;15.780;2023-03-23T03:59:08;3.05;;;1.70;;
29242;SDS011;21110;48.036;15.780;2023-03-23T04:01:35;5.43;;;1.98;;
29242;SDS011;21110;48.036;15.780;2023-03-23T04:04:02;3.55;;;1.80;;
29242;SDS011;21110;48.036;15.780;2023-03-23T04:06:29;5.75;;;2.20;;
29242;SDS011;21110;48.036;15.780;2023-03-23T04:08:55;3.40;;;1.80;;
29242;SDS011;21110;48.036;15.780;2023-03-23T04:11:24;3.05;;;1.90;;
29242;SDS011;21110;48.036;15.780;2023-03-23T04:13:50;5.38;;;2.20;;
29242;SDS011;21110;48.036;15.780;2023-03-23T04:16:16;3.35;;;1.90;;
29242;SDS011;21110;48.036;15.780;2023-03-23T04:18:41;7.53;;;2.00;;
29242;SDS011;21110;48.036;15.780;2023-03-23T04:21:09;4.40;;;2.03;;
29242;SDS011;21110;48.036;15.780;2023-03-23T04:23:35;2.85;;;1.70;;
29242;SDS011;21110;48.036;15.780;2023-03-23T04:26:02;5.13;;;1.90;;
29242;SDS011;21110;48.036;15.780;2023-03-23T04:28:28;7.28;;;2.20;;
29242;SDS011;21110;48.036;15.780;2023-03-23T04:30:54;8.15;;;1.90;;
29242;SDS011;21110;48.036;15.780;2023-03-23T04:33:23;12.95;;;2.13;;
29242;SDS011;21110;48.036;15.780;2023-03-23T04:35:54;8.68;;;1.90;;
29242;SDS011;21110;48.036;15.780;2023-03-23T04:38:22;10.65;;;2.13;;
29242;SDS011;21110;48.036;15.780;2023-03-23T04:40:50;11.43;;;2.53;;
29242;SDS011;21110;48.036;15.780;2023-03-23T04:43:17;4.13;;;2.25;;
29242;SDS011;21110;48.036;15.780;2023-03-23T04:45:52;6.93;;;2.20;;
29242;SDS011;21110;48.036;15.780;2023-03-23T04:48:28;4.63;;;2.00;;
29242;SDS011;21110;48.036;15.780;2023-03-23T04:50:57;7.03;;;2.20;;
29242;SDS011;21110;48.036;15.780;2023-03-23T04:53:25;6.50;;;2.30;;
29242;SDS011;21110;48.036;15.780;2023-03-23T04:55:51;13.32;;;2.20;;
29242;SDS011;21110;48.036;15.780;2023-03-23T04:58:16;8.23;;;2.30;;
29242;SDS011;21110;48.036;15.780;2023-03-23T05:00:42;11.15;;;2.33;;
29242;SDS011;21110;48.036;15.780;2023-03-23T05:03:09;7.03;;;2.22;;
29242;SDS011;21110;48.036;15.780;2023-03-23T05:05:35;3.85;;;2.30;;
29242;SDS011;21110;48.036;15.780;2023-03-23T05:08:02;7.25;;;2.20;;
29242;SDS011;21110;48.036;15.780;2023-03-23T05:10:28;3.40;;;2.33;;
29242;SDS011;21110;48.036;15.780;2023-03-23T05:12:53;6.60;;;2.20;;
29242;SDS011;21110;48.036;15.780;2023-03-23T05:15:19;5.10;;;2.15;;
29242;SDS011;21110;48.036;15.780;2023-03-23T05:17:45;6.20;;;2.40;;
29242;SDS011;21110;48.036;15.780;2023-03-23T05:20:14;3.58;;;2.63;;
29242;SDS011;21110;48.036;15.780;2023-03-23T05:22:44;8.65;;;2.80;;
29242;SDS011;21110;48.036;15.780;2023-03-23T05:25:12;4.72;;;3.25;;
29242;SDS011;21110;48.036;15.780;2023-03-23T05:27:38;5.32;;;3.20;;
29242;SDS011;21110;48.036;15.780;2023-03-23T05:30:08;7.28;;;3.10;;
29242;SDS011;21110;48.036;15.780;2023-03-23T05:32:35;8.05;;;3.13;;
29242;SDS011;21110;48.036;15.780;2023-03-23T05:35:02;16.85;;;3.15;;
29242;SDS011;21110;48.036;15.780;2023-03-23T05:37:28;32.15;;;3.90;;
29242;SDS011;21110;48.036;15.780;2023-03-23T05:39:57;16.63;;;3.10;;
29242;SDS011;21110;48.036;15.780;2023-03-23T05:42:26;13.88;;;3.00;;
29242;SDS011;21110;48.036;15.780;2023-03-23T05:44:52;8.85;;;2.80;;
29242;SDS011;21110;48.036;15.780;2023-03-23T05:47:18;14.82;;;3.22;;
29242;SDS011;21110;48.036;15.780;2023-03-23T05:49:43;8.15;;;3.00;;
29242;SDS011;21110;48.036;15.780;2023-03-23T05:52:09;8.75;;;3.13;;
29242;SDS011;21110;48.036;15.780;2023-03-23T05:54:35;5.32;;;2.50;;
29242;SDS011;21110;48.036;15.780;2023-03-23T05:57:01;5.25;;;2.67;;
29242;SDS011;21110;48.036;15.780;2023-03-23T05:59:28;3.22;;;2.78;;
29242;SDS011;21110;48.036;15.780;2023-03-23T06:01:53;8.85;;;2.88;;
29242;SDS011;21110;48.036;15.780;2023-03-23T06:04:20;10.10;;;2.70;;
29242;SDS011;21110;48.036;15.780;2023-03-23T06:06:49;5.53;;;2.60;;
29242;SDS011;21110;48.036;15.780;2023-03-23T06:09:16;3.63;;;2.70;;
29242;SDS011;21110;48.036;15.780;2023-03-23T06:11:42;6.10;;;2.50;;
29242;SDS011;21110;48.036;15.780;2023-03-23T06:14:08;6.63;;;2.58;;
29242;SDS011;21110;48.036;15.780;2023-03-23T06:16:34;2.90;;;2.22;;
29242;SDS011;21110;48.036;15.780;2023-03-23T06:19:00;3.72;;;2.70;;
29242;SDS011;21110;48.036;15.780;2023-03-23T06:21:26;5.00;;;3.75;;
29242;SDS011;21110;48.036;15.780;2023-03-23T06:23:53;5.25;;;3.38;;
29242;SDS011;21110;48.036;15.780;2023-03-23T06:26:19;8.60;;;3.20;;
29242;SDS011;21110;48.036;15.780;2023-03-23T06:28:48;6.38;;;3.00;;
29242;SDS011;21110;48.036;15.780;2023-03-23T06:31:14;13.90;;;3.75;;
29242;SDS011;21110;48.036;15.780;2023-03-23T06:33:39;17.45;;;4.30;;
29242;SDS011;21110;48.036;15.780;2023-03-23T06:36:06;18.15;;;4.30;;
29242;SDS011;21110;48.036;15.780;2023-03-23T06:38:31;17.85;;;4.80;;
29242;SDS011;21110;48.036;15.780;2023-03-23T06:40:57;14.40;;;4.32;;
29242;SDS011;21110;48.036;15.780;2023-03-23T06:43:23;16.35;;;4.75;;
29242;SDS011;21110;48.036;15.780;2023-03-23T06:45:49;13.60;;;4.60;;
29242;SDS011;21110;48.036;15.780;2023-03-23T06:48:16;17.65;;;4.70;;
29242;SDS011;21110;48.036;15.780;2023-03-23T06:50:45;12.20;;;4.20;;
29242;SDS011;21110;48.036;15.780;2023-03-23T06:53:11;13.48;;;4.90;;
29242;SDS011;21110;48.036;15.780;2023-03-23T06:55:37;16.77;;;4.45;;
29242;SDS011;21110;48.036;15.780;2023-03-23T06:58:07;10.90;;;4.10;;
29242;SDS011;21110;48.036;15.780;2023-03-23T07:00:33;20.02;;;4.55;;
29242;SDS011;21110;48.036;15.780;2023-03-23T07:02:59;14.55;;;4.00;;
29242;SDS011;21110;48.036;15.780;2023-03-23T07:05:25;19.23;;;4.10;;
29242;SDS011;21110;48.036;15.780;2023-03-23T07:07:51;15.52;;;4.22;;
29242;SDS011;21110;48.036;15.780;2023-03-23T07:10:17;16.38;;;4.20;;
29242;SDS011;21110;48.036;15.780;2023-03-23T07:12:43;15.32;;;3.97;;
29242;SDS011;21110;48.036;15.780;2023-03-23T07:15:09;18.42;;;3.95;;
29242;SDS011;21110;48.036;15.780;2023-03-23T07:17:36;14.52;;;4.03;;
29242;SDS011;21110;48.036;15.780;2023-03-23T07:20:02;13.70;;;3.50;;
29242;SDS011;21110;48.036;15.780;2023-03-23T07:22:29;11.15;;;3.50;;
29242;SDS011;21110;48.036;15.780;2023-03-23T07:24:55;12.63;;;3.70;;
29242;SDS011;21110;48.036;15.780;2023-03-23T07:27:21;10.40;;;3.58;;
29242;SDS011;21110;48.036;15.780;2023-03-23T07:29:46;14.65;;;3.47;;
29242;SDS011;21110;48.036;15.780;2023-03-23T07:32:12;10.73;;;3.50;;
29242;SDS011;21110;48.036;15.780;2023-03-23T07:34:38;11.63;;;3.65;;
29242;SDS011;21110;48.036;15.780;2023-03-23T07:37:04;12.80;;;3.70;;
29242;SDS011;21110;48.036;15.780;2023-03-23T07:39:30;17.73;;;3.70;;
29242;SDS011;21110;48.036;15.780;2023-03-23T07:41:56;14.85;;;4.22;;
29242;SDS011;21110;48.036;15.780;2023-03-23T07:44:22;8.48;;;3.67;;
29242;SDS011;21110;48.036;15.780;2023-03-23T07:46:48;15.40;;;3.60;;
29242;SDS011;21110;48.036;15.780;2023-03-23T07:49:13;10.13;;;4.10;;
29242;SDS011;21110;48.036;15.780;2023-03-23T07:51:40;15.85;;;4.10;;
29242;SDS011;21110;48.036;15.780;2023-03-23T07:54:06;8.77;;;3.90;;
29242;SDS011;21110;48.036;15.780;2023-03-23T07:56:35;10.55;;;3.75;;
29242;SDS011;21110;48.036;15.780;2023-03-23T07:59:02;9.07;;;3.85;;
29242;SDS011;21110;48.036;15.780;2023-03-23T08:01:29;11.25;;;3.55;;
29242;SDS011;21110;48.036;15.780;2023-03-23T08:03:55;6.68;;;3.60;;
29242;SDS011;21110;48.036;15.780;2023-03-23T08:06:25;6.93;;;3.47;;
29242;SDS011;21110;48.036;15.780;2023-03-23T08:08:52;5.65;;;3.10;;
29242;SDS011;21110;48.036;15.780;2023-03-23T08:11:18;12.32;;;4.25;;
29242;SDS011;21110;48.036;15.780;2023-03-23T08:13:45;8.15;;;4.13;;
29242;SDS011;21110;48.036;15.780;2023-03-23T08:16:11;11.13;;;5.53;;
29242;SDS011;21110;48.036;15.780;2023-03-23T08:18:38;12.93;;;5.60;;
29242;SDS011;21110;48.036;15.780;2023-03-23T08:21:05;12.63;;;4.70;;
29242;SDS011;21110;48.036;15.780;2023-03-23T08:23:33;8.60;;;4.40;;
29242;SDS011;21110;48.036;15.780;2023-03-23T08:26:00;6.68;;;4.40;;
29242;SDS011;21110;48.036;15.780;2023-03-23T08:28:26;6.45;;;4.10;;
29242;SDS011;21110;48.036;15.780;2023-03-23T08:30:51;7.35;;;3.80;;
29242;SDS011;21110;48.036;15.780;2023-03-23T08:33:17;6.53;;;3.90;;
29242;SDS011;21110;48.036;15.780;2023-03-23T08:35:43;5.88;;;3.65;;
29242;SDS011;21110;48.036;15.780;2023-03-23T08:38:12;5.78;;;3.65;;
29242;SDS011;21110;48.036;15.780;2023-03-23T08:40:38;5.60;;;3.58;;
29242;SDS011;21110;48.036;15.780;2023-03-23T08:43:04;7.45;;;3.45;;
29242;SDS011;21110;48.036;15.780;2023-03-23T08:45:31;4.60;;;3.30;;
29242;SDS011;21110;48.036;15.780;2023-03-23T08:47:57;3.63;;;3.10;;
29242;SDS011;21110;48.036;15.780;2023-03-23T08:50:25;5.20;;;3.20;;
29242;SDS011;21110;48.036;15.780;2023-03-23T08:52:52;4.90;;;3.10;;
29242;SDS011;21110;48.036;15.780;2023-03-23T08:55:19;4.18;;;3.03;;
29242;SDS011;21110;48.036;15.780;2023-03-23T08:57:46;3.35;;;2.95;;
29242;SDS011;21110;48.036;15.780;2023-03-23T09:00:14;3.53;;;3.05;;
29242;SDS011;21110;48.036;15.780;2023-03-23T09:02:43;6.00;;;3.20;;
29242;SDS011;21110;48.036;15.780;2023-03-23T09:05:12;5.00;;;3.20;;
29242;SDS011;21110;48.036;15.780;2023-03-23T09:07:39;3.22;;;2.90;;
29242;SDS011;21110;48.036;15.780;2023-03-23T09:10:06;3.10;;;2.88;;
29242;SDS011;21110;48.036;15.780;2023-03-23T09:12:32;5.50;;;2.88;;
29242;SDS011;21110;48.036;15.780;2023-03-23T09:14:58;3.25;;;2.85;;
29242;SDS011;21110;48.036;15.780;2023-03-23T09:17:24;4.35;;;2.67;;
29242;SDS011;21110;48.036;15.780;2023-03-23T09:19:50;3.20;;;2.78;;
29242;SDS011;21110;48.036;15.780;2023-03-23T09:22:16;3.47;;;2.80;;
29242;SDS011;21110;48.036;15.780;2023-03-23T09:24:44;5.38;;;2.92;;
29242;SDS011;21110;48.036;15.780;2023-03-23T09:27:11;4.57;;;2.88;;
29242;SDS011;21110;48.036;15.780;2023-03-23T09:29:37;3.80;;;3.08;;
29242;SDS011;21110;48.036;15.780;2023-03-23T09:32:03;6.60;;;3.15;;
29242;SDS011;21110;48.036;15.780;2023-03-23T09:34:28;4.80;;;3.30;;
29242;SDS011;21110;48.036;15.780;2023-03-23T09:36:54;5.18;;;3.10;;
29242;SDS011;21110;48.036;15.780;2023-03-23T09:39:20;3.35;;;3.03;;
29242;SDS011;21110;48.036;15.780;2023-03-23T09:47:46;3.10;;;2.80;;
29242;SDS011;21110;48.036;15.780;2023-03-23T09:50:33;2.97;;;2.67;;
29242;SDS011;21110;48.036;15.780;2023-03-23T09:53:09;2.75;;;2.47;;
29242;SDS011;21110;48.036;15.780;2023-03-23T09:55:44;4.57;;;2.80;;
29242;SDS011;21110;48.036;15.780;2023-03-23T10:03:34;3.28;;;2.63;;
29242;SDS011;21110;48.036;15.780;2023-03-23T10:06:04;2.80;;;2.53;;
29242;SDS011;21110;48.036;15.780;2023-03-23T10:08:32;3.22;;;2.78;;
29242;SDS011;21110;48.036;15.780;2023-03-23T10:11:03;2.70;;;2.50;;
29242;SDS011;21110;48.036;15.780;2023-03-23T10:16:24;2.97;;;2.72;;
29242;SDS011;21110;48.036;15.780;2023-03-23T10:18:58;3.10;;;2.80;;
29242;SDS011;21110;48.036;15.780;2023-03-23T10:21:32;2.70;;;2.50;;
29242;SDS011;21110;48.036;15.780;2023-03-23T10:24:03;3.72;;;2.60;;
29242;SDS011;21110;48.036;15.780;2023-03-23T10:29:26;3.47;;;2.60;;
29242;SDS011;21110;48.036;15.780;2023-03-23T10:31:59;2.70;;;2.50;;
29242;SDS011;21110;48.036;15.780;2023-03-23T10:39:55;2.85;;;2.60;;
29242;SDS011;21110;48.036;15.780;2023-03-23T10:44:51;3.40;;;2.65;;
29242;SDS011;21110;48.036;15.780;2023-03-23T10:47:17;2.78;;;2.58;;
29242;SDS011;21110;48.036;15.780;2023-03-23T10:57:35;3.97;;;2.53;;
29242;SDS011;21110;48.036;15.780;2023-03-23T11:02:35;2.28;;;2.17;;
29242;SDS011;21110;48.036;15.780;2023-03-23T11:05:07;2.30;;;2.10;;
29242;SDS011;21110;48.036;15.780;2023-03-23T11:07:52;2.60;;;2.40;;
29242;SDS011;21110;48.036;15.780;2023-03-23T11:12:55;2.58;;;2.38;;
29242;SDS011;21110;48.036;15.780;2023-03-23T11:18:03;2.58;;;2.38;;
29242;SDS011;21110;48.036;15.780;2023-03-23T11:20:34;2.50;;;2.30;;
29242;SDS011;21110;48.036;15.780;2023-03-23T11:23:07;2.67;;;2.47;;
29242;SDS011;21110;48.036;15.780;2023-03-23T11:25:56;2.63;;;2.20;;
29242;SDS011;21110;48.036;15.780;2023-03-23T11:28:25;2.13;;;1.92;;
29242;SDS011;21110;48.036;15.780;2023-03-23T11:30:53;2.67;;;2.22;;
29242;SDS011;21110;48.036;15.780;2023-03-23T11:33:20;2.50;;;2.30;;
29242;SDS011;21110;48.036;15.780;2023-03-23T11:35:50;3.28;;;2.33;;
29242;SDS011;21110;48.036;15.780;2023-03-23T11:38:19;2.20;;;2.10;;
29242;SDS011;21110;48.036;15.780;2023-03-23T11:40:48;2.15;;;2.05;;
29242;SDS011;21110;48.036;15.780;2023-03-23T11:43:23;2.30;;;2.10;;
29242;SDS011;21110;48.036;15.780;2023-03-23T11:45:53;2.55;;;2.35;;
29242;SDS011;21110;48.036;15.780;2023-03-23T11:51:04;2.22;;;2.00;;
29242;SDS011;21110;48.036;15.780;2023-03-23T11:58:50;2.50;;;2.28;;
29242;SDS011;21110;48.036;15.780;2023-03-23T12:01:24;2.30;;;2.20;;
29242;SDS011;21110;48.036;15.780;2023-03-23T12:20:40;2.20;;;2.08;;
29242;SDS011;21110;48.036;15.780;2023-03-23T12:37:02;2.20;;;2.00;;
29242;SDS011;21110;48.036;15.780;2023-03-23T12:48:11;2.33;;;2.13;;
29242;SDS011;21110;48.036;15.780;2023-03-23T12:53:17;2.72;;;2.30;;
29242;SDS011;21110;48.036;15.780;2023-03-23T12:58:43;2.40;;;2.20;;
29242;SDS011;21110;48.036;15.780;2023-03-23T13:01:18;2.15;;;1.95;;
29242;SDS011;21110;48.036;15.780;2023-03-23T13:03:50;1.80;;;1.70;;
29242;SDS011;21110;48.036;15.780;2023-03-23T13:06:40;2.10;;;1.90;;
29242;SDS011;21110;48.036;15.780;2023-03-23T13:11:47;2.03;;;1.90;;
29242;SDS011;21110;48.036;15.780;2023-03-23T13:17:14;2.10;;;1.90;;
29242;SDS011;21110;48.036;15.780;2023-03-23T13:25:07;2.20;;;2.00;;
29242;SDS011;21110;48.036;15.780;2023-03-23T13:27:39;1.90;;;1.80;;
29242;SDS011;21110;48.036;15.780;2023-03-23T13:30:05;2.08;;;1.90;;
29242;SDS011;21110;48.036;15.780;2023-03-23T13:32:49;2.33;;;1.95;;
29242;SDS011;21110;48.036;15.780;2023-03-23T13:35:16;2.13;;;2.00;;
29242;SDS011;21110;48.036;15.780;2023-03-23T13:37:46;1.90;;;1.80;;
29242;SDS011;21110;48.036;15.780;2023-03-23T13:42:57;2.45;;;1.88;;
29242;SDS011;21110;48.036;15.780;2023-03-23T13:51:21;2.20;;;2.00;;
29242;SDS011;21110;48.036;15.780;2023-03-23T13:54:31;2.13;;;2.00;;
29242;SDS011;21110;48.036;15.780;2023-03-23T13:56:56;2.25;;;2.03;;
29242;SDS011;21110;48.036;15.780;2023-03-23T13:59:32;4.28;;;2.10;;
29242;SDS011;21110;48.036;15.780;2023-03-23T14:02:45;2.58;;;2.35;;
29242;SDS011;21110;48.036;15.780;2023-03-23T14:05:07;2.42;;;2.03;;
29242;SDS011;21110;48.036;15.780;2023-03-23T14:07:52;2.92;;;2.17;;
29242;SDS011;21110;48.036;15.780;2023-03-23T14:10:25;2.25;;;2.05;;
29242;SDS011;21110;48.036;15.780;2023-03-23T14:13:03;2.20;;;2.00;;
29242;SDS011;21110;48.036;15.780;2023-03-23T14:15:30;2.28;;;1.95;;
29242;SDS011;21110;48.036;15.780;2023-03-23T14:18:05;3.53;;;2.10;;
29242;SDS011;21110;48.036;15.780;2023-03-23T14:20:32;2.25;;;1.83;;
29242;SDS011;21110;48.036;15.780;2023-03-23T14:23:01;2.00;;;1.90;;
29242;SDS011;21110;48.036;15.780;2023-03-23T14:25:27;2.03;;;1.92;;
29242;SDS011;21110;48.036;15.780;2023-03-23T14:27:56;2.55;;;2.10;;
29242;SDS011;21110;48.036;15.780;2023-03-23T14:30:22;2.10;;;1.90;;
29242;SDS011;21110;48.036;15.780;2023-03-23T14:32:51;2.10;;;2.00;;
29242;SDS011;21110;48.036;15.780;2023-03-23T14:35:31;1.88;;;1.77;;
29242;SDS011;21110;48.036;15.780;2023-03-23T14:37:59;1.90;;;1.80;;
29242;SDS011;21110;48.036;15.780;2023-03-23T14:40:28;2.10;;;1.90;;
29242;SDS011;21110;48.036;15.780;2023-03-23T14:42:55;2.28;;;2.00;;
29242;SDS011;21110;48.036;15.780;2023-03-23T14:45:22;2.00;;;1.90;;
29242;SDS011;21110;48.036;15.780;2023-03-23T14:47:57;2.20;;;1.85;;
29242;SDS011;21110;48.036;15.780;2023-03-23T14:50:26;2.42;;;1.95;;
29242;SDS011;21110;48.036;15.780;2023-03-23T14:55:49;2.10;;;2.00;;
29242;SDS011;21110;48.036;15.780;2023-03-23T14:58:19;2.20;;;2.00;;
29242;SDS011;21110;48.036;15.780;2023-03-23T15:01:03;2.08;;;1.83;;
29242;SDS011;21110;48.036;15.780;2023-03-23T15:03:34;2.85;;;2.03;;
29242;SDS011;21110;48.036;15.780;2023-03-23T15:06:04;2.22;;;2.10;;
29242;SDS011;21110;48.036;15.780;2023-03-23T15:08:34;2.35;;;2.00;;
29242;SDS011;21110;48.036;15.780;2023-03-23T15:11:20;1.90;;;1.80;;
29242;SDS011;21110;48.036;15.780;2023-03-23T15:13:53;2.00;;;1.90;;
29242;SDS011;21110;48.036;15.780;2023-03-23T15:16:27;2.25;;;2.05;;
29242;SDS011;21110;48.036;15.780;2023-03-23T15:21:51;2.38;;;1.75;;
29242;SDS011;21110;48.036;15.780;2023-03-23T15:24:18;2.20;;;1.88;;
29242;SDS011;21110;48.036;15.780;2023-03-23T15:26:49;2.25;;;2.05;;
29242;SDS011;21110;48.036;15.780;2023-03-23T15:29:16;2.15;;;1.95;;
29242;SDS011;21110;48.036;15.780;2023-03-23T15:31:46;1.90;;;1.80;;
29242;SDS011;21110;48.036;15.780;2023-03-23T15:34:23;2.55;;;2.00;;
29242;SDS011;21110;48.036;15.780;2023-03-23T15:36:57;3.33;;;2.03;;
29242;SDS011;21110;48.036;15.780;2023-03-23T15:39:27;3.22;;;2.00;;
29242;SDS011;21110;48.036;15.780;2023-03-23T15:41:55;2.08;;;1.90;;
29242;SDS011;21110;48.036;15.780;2023-03-23T15:44:26;2.28;;;1.95;;
29242;SDS011;21110;48.036;15.780;2023-03-23T15:47:02;2.78;;;1.92;;
29242;SDS011;21110;48.036;15.780;2023-03-23T15:52:01;2.00;;;1.90;;
29242;SDS011;21110;48.036;15.780;2023-03-23T15:54:29;1.90;;;1.80;;
29242;SDS011;21110;48.036;15.780;2023-03-23T15:56:57;2.00;;;1.85;;
29242;SDS011;21110;48.036;15.780;2023-03-23T15:59:22;2.17;;;1.80;;
29242;SDS011;21110;48.036;15.780;2023-03-23T16:01:48;2.00;;;1.83;;
29242;SDS011;21110;48.036;15.780;2023-03-23T16:04:14;2.03;;;1.92;;
29242;SDS011;21110;48.036;15.780;2023-03-23T16:06:42;2.35;;;2.00;;
29242;SDS011;21110;48.036;15.780;2023-03-23T16:09:15;1.90;;;1.80;;
29242;SDS011;21110;48.036;15.780;2023-03-23T16:11:43;1.90;;;1.80;;
29242;SDS011;21110;48.036;15.780;2023-03-23T16:14:09;2.20;;;1.90;;
29242;SDS011;21110;48.036;15.780;2023-03-23T16:16:53;1.80;;;1.70;;
29242;SDS011;21110;48.036;15.780;2023-03-23T16:19:19;2.40;;;2.20;;
29242;SDS011;21110;48.036;15.780;2023-03-23T16:21:48;1.92;;;1.80;;
29242;SDS011;21110;48.036;15.780;2023-03-23T16:24:14;2.10;;;2.00;;
29242;SDS011;21110;48.036;15.780;2023-03-23T16:26:39;2.15;;;2.00;;
29242;SDS011;21110;48.036;15.780;2023-03-23T16:29:10;2.55;;;2.35;;
29242;SDS011;21110;48.036;15.780;2023-03-23T16:31:37;4.00;;;2.75;;
29242;SDS011;21110;48.036;15.780;2023-03-23T16:34:02;5.53;;;5.03;;
29242;SDS011;21110;48.036;15.780;2023-03-23T16:36:28;6.55;;;4.60;;
29242;SDS011;21110;48.036;15.780;2023-03-23T16:38:54;4.22;;;3.88;;
29242;SDS011;21110;48.036;15.780;2023-03-23T16:41:19;4.00;;;3.70;;
29242;SDS011;21110;48.036;15.780;2023-03-23T16:43:45;3.95;;;3.50;;
29242;SDS011;21110;48.036;15.780;2023-03-23T16:46:11;4.72;;;3.47;;
29242;SDS011;21110;48.036;15.780;2023-03-23T16:48:37;4.75;;;3.10;;
29242;SDS011;21110;48.036;15.780;2023-03-23T16:51:03;5.22;;;3.38;;
29242;SDS011;21110;48.036;15.780;2023-03-23T16:53:29;3.35;;;2.92;;
29242;SDS011;21110;48.036;15.780;2023-03-23T16:55:55;3.30;;;3.00;;
29242;SDS011;21110;48.036;15.780;2023-03-23T16:58:21;5.15;;;3.10;;
29242;SDS011;21110;48.036;15.780;2023-03-23T17:00:48;4.75;;;3.10;;
29242;SDS011;21110;48.036;15.780;2023-03-23T17:03:15;3.75;;;3.20;;
29242;SDS011;21110;48.036;15.780;2023-03-23T17:05:42;5.20;;;2.90;;